sensor_id;sensor_type;location;lat;lon;timestamp;P1;durP1;ratioP1;P2;durP2;ratioP2
52166;SDS011;38149;52.666;6.428;2022-12-18T00:01:00;0.50;;;0.50;;
52166;SDS011;38149;52.666;6.428;2022-12-18T00:03:31;0.60;;;0.60;;
52166;SDS011;38149;52.666;6.428;2022-12-18T00:05:58;0.55;;;0.55;;
52166;SDS011;38149;52.666;6.428;2022-12-18T00:08:24;0.50;;;0.50;;
52166;SDS011;38149;52.666;6.428;2022-12-18T00:10:50;0.50;;;0.50;;
52166;SDS011;38149;52.666;6.428;2022-12-18T00:13:16;0.50;;;0.50;;
52166;SDS011;38149;52.666;6.428;2022-12-18T00:15:43;0.50;;;0.50;;
52166;SDS011;38149;52.666;6.428;2022-12-18T00:18:09;0.50;;;0.50;;
52166;SDS011;38149;52.666;6.428;2022-12-18T00:20:36;0.50;;;0.50;;
52166;SDS011;38149;52.666;6.428;2022-12-18T00:23:03;0.50;;;0.50;;
52166;SDS011;38149;52.666;6.428;2022-12-18T00:25:34;0.50;;;0.50;;
52166;SDS011;38149;52.666;6.428;2022-12-18T00:28:01;0.50;;;0.50;;
52166;SDS011;38149;52.666;6.428;2022-12-18T00:30:30;0.50;;;0.50;;
52166;SDS011;38149;52.666;6.428;2022-12-18T00:32:56;0.50;;;0.50;;
52166;SDS011;38149;52.666;6.428;2022-12-18T00:35:22;0.50;;;0.50;;
52166;SDS011;38149;52.666;6.428;2022-12-18T00:37:49;0.50;;;0.50;;
52166;SDS011;38149;52.666;6.428;2022-12-18T00:40:15;0.50;;;0.50;;
52166;SDS011;38149;52.666;6.428;2022-12-18T00:42:41;0.50;;;0.50;;
52166;SDS011;38149;52.666;6.428;2022-12-18T00:45:23;0.60;;;0.60;;
52166;SDS011;38149;52.666;6.428;2022-12-18T00:47:50;0.60;;;0.60;;
52166;SDS011;38149;52.666;6.428;2022-12-18T00:50:16;0.50;;;0.50;;
52166;SDS011;38149;52.666;6.428;2022-12-18T00:52:43;0.60;;;0.60;;
52166;SDS011;38149;52.666;6.428;2022-12-18T00:55:09;0.50;;;0.50;;
52166;SDS011;38149;52.666;6.428;2022-12-18T00:57:35;0.60;;;0.60;;
52166;SDS011;38149;52.666;6.428;2022-12-18T01:00:03;0.55;;;0.55;;
52166;SDS011;38149;52.666;6.428;2022-12-18T01:02:30;0.50;;;0.50;;
52166;SDS011;38149;52.666;6.428;2022-12-18T01:04:57;0.55;;;0.55;;
52166;SDS011;38149;52.666;6.428;2022-12-18T01:07:23;0.50;;;0.50;;
52166;SDS011;38149;52.666;6.428;2022-12-18T01:09:49;0.50;;;0.50;;
52166;SDS011;38149;52.666;6.428;2022-12-18T01:12:15;0.50;;;0.50;;
52166;SDS011;38149;52.666;6.428;2022-12-18T01:14:41;0.50;;;0.50;;
52166;SDS011;38149;52.666;6.428;2022-12-18T01:17:07;0.60;;;0.60;;
52166;SDS011;38149;52.666;6.428;2022-12-18T01:19:33;0.50;;;0.50;;
52166;SDS011;38149;52.666;6.428;2022-12-18T01:21:59;0.60;;;0.60;;
52166;SDS011;38149;52.666;6.428;2022-12-18T01:24:25;0.50;;;0.50;;
52166;SDS011;38149;52.666;6.428;2022-12-18T01:26:51;0.50;;;0.50;;
52166;SDS011;38149;52.666;6.428;2022-12-18T01:29:18;0.50;;;0.50;;
52166;SDS011;38149;52.666;6.428;2022-12-18T01:31:44;0.50;;;0.50;;
52166;SDS011;38149;52.666;6.428;2022-12-18T01:34:10;0.50;;;0.50;;
52166;SDS011;38149;52.666;6.428;2022-12-18T01:36:36;0.50;;;0.50;;
52166;SDS011;38149;52.666;6.428;2022-12-18T01:39:11;0.50;;;0.50;;
52166;SDS011;38149;52.666;6.428;2022-12-18T01:41:38;0.60;;;0.60;;
52166;SDS011;38149;52.666;6.428;2022-12-18T01:47:28;0.50;;;0.50;;
52166;SDS011;38149;52.666;6.428;2022-12-18T01:49:56;0.50;;;0.50;;
52166;SDS011;38149;52.666;6.428;2022-12-18T01:52:24;0.50;;;0.50;;
52166;SDS011;38149;52.666;6.428;2022-12-18T01:54:52;0.60;;;0.60;;
52166;SDS011;38149;52.666;6.428;2022-12-18T01:57:19;0.50;;;0.50;;
52166;SDS011;38149;52.666;6.428;2022-12-18T01:59:45;0.60;;;0.60;;
52166;SDS011;38149;52.666;6.428;2022-12-18T02:02:15;0.50;;;0.50;;
52166;SDS011;38149;52.666;6.428;2022-12-18T02:04:42;0.50;;;0.50;;
52166;SDS011;38149;52.666;6.428;2022-12-18T02:07:17;0.50;;;0.50;;
52166;SDS011;38149;52.666;6.428;2022-12-18T02:10:29;0.60;;;0.60;;
52166;SDS011;38149;52.666;6.428;2022-12-18T02:15:39;0.50;;;0.50;;
52166;SDS011;38149;52.666;6.428;2022-12-18T02:20:39;0.57;;;0.57;;
52166;SDS011;38149;52.666;6.428;2022-12-18T02:23:49;0.60;;;0.60;;
52166;SDS011;38149;52.666;6.428;2022-12-18T02:26:23;0.50;;;0.50;;
52166;SDS011;38149;52.666;6.428;2022-12-18T02:29:00;0.60;;;0.60;;
52166;SDS011;38149;52.666;6.428;2022-12-18T02:31:31;0.60;;;0.60;;
52166;SDS011;38149;52.666;6.428;2022-12-18T02:34:19;0.57;;;0.57;;
52166;SDS011;38149;52.666;6.428;2022-12-18T02:36:48;0.50;;;0.50;;
52166;SDS011;38149;52.666;6.428;2022-12-18T02:39:15;0.50;;;0.50;;
52166;SDS011;38149;52.666;6.428;2022-12-18T02:41:42;0.52;;;0.52;;
52166;SDS011;38149;52.666;6.428;2022-12-18T02:44:10;0.60;;;0.60;;
52166;SDS011;38149;52.666;6.428;2022-12-18T02:46:38;0.50;;;0.50;;
52166;SDS011;38149;52.666;6.428;2022-12-18T02:52:33;0.50;;;0.50;;
52166;SDS011;38149;52.666;6.428;2022-12-18T02:57:39;0.60;;;0.60;;
52166;SDS011;38149;52.666;6.428;2022-12-18T03:00:24;0.50;;;0.50;;
52166;SDS011;38149;52.666;6.428;2022-12-18T03:02:59;0.60;;;0.60;;
52166;SDS011;38149;52.666;6.428;2022-12-18T03:05:40;0.50;;;0.50;;
52166;SDS011;38149;52.666;6.428;2022-12-18T03:08:11;0.60;;;0.60;;
52166;SDS011;38149;52.666;6.428;2022-12-18T03:11:02;0.60;;;0.60;;
52166;SDS011;38149;52.666;6.428;2022-12-18T03:13:52;0.60;;;0.60;;
52166;SDS011;38149;52.666;6.428;2022-12-18T03:16:25;0.60;;;0.60;;
52166;SDS011;38149;52.666;6.428;2022-12-18T03:18:54;0.60;;;0.60;;
52166;SDS011;38149;52.666;6.428;2022-12-18T03:21:34;0.50;;;0.50;;
52166;SDS011;38149;52.666;6.428;2022-12-18T03:24:07;0.60;;;0.60;;
52166;SDS011;38149;52.666;6.428;2022-12-18T03:26:34;0.57;;;0.57;;
52166;SDS011;38149;52.666;6.428;2022-12-18T03:29:02;0.57;;;0.57;;
52166;SDS011;38149;52.666;6.428;2022-12-18T03:31:32;0.55;;;0.55;;
52166;SDS011;38149;52.666;6.428;2022-12-18T03:33:59;0.60;;;0.60;;
52166;SDS011;38149;52.666;6.428;2022-12-18T03:36:27;0.50;;;0.50;;
52166;SDS011;38149;52.666;6.428;2022-12-18T03:38:53;0.60;;;0.60;;
52166;SDS011;38149;52.666;6.428;2022-12-18T03:41:25;0.60;;;0.60;;
52166;SDS011;38149;52.666;6.428;2022-12-18T03:49:53;0.60;;;0.60;;
52166;SDS011;38149;52.666;6.428;2022-12-18T03:52:27;0.60;;;0.60;;
52166;SDS011;38149;52.666;6.428;2022-12-18T03:55:00;0.50;;;0.50;;
52166;SDS011;38149;52.666;6.428;2022-12-18T03:57:28;0.60;;;0.60;;
52166;SDS011;38149;52.666;6.428;2022-12-18T03:59:57;0.50;;;0.50;;
52166;SDS011;38149;52.666;6.428;2022-12-18T04:02:28;0.60;;;0.60;;
52166;SDS011;38149;52.666;6.428;2022-12-18T04:04:56;0.60;;;0.60;;
52166;SDS011;38149;52.666;6.428;2022-12-18T04:07:24;0.50;;;0.50;;
52166;SDS011;38149;52.666;6.428;2022-12-18T04:09:50;0.60;;;0.60;;
52166;SDS011;38149;52.666;6.428;2022-12-18T04:12:18;0.50;;;0.50;;
52166;SDS011;38149;52.666;6.428;2022-12-18T04:14:45;0.60;;;0.60;;
52166;SDS011;38149;52.666;6.428;2022-12-18T04:17:11;0.60;;;0.60;;
52166;SDS011;38149;52.666;6.428;2022-12-18T04:19:37;0.60;;;0.60;;
52166;SDS011;38149;52.666;6.428;2022-12-18T04:22:03;0.60;;;0.60;;
52166;SDS011;38149;52.666;6.428;2022-12-18T04:24:29;0.60;;;0.60;;
52166;SDS011;38149;52.666;6.428;2022-12-18T04:26:55;0.60;;;0.60;;
52166;SDS011;38149;52.666;6.428;2022-12-18T04:29:21;0.52;;;0.52;;
52166;SDS011;38149;52.666;6.428;2022-12-18T04:31:47;0.60;;;0.60;;
52166;SDS011;38149;52.666;6.428;2022-12-18T04:34:14;0.60;;;0.60;;
52166;SDS011;38149;52.666;6.428;2022-12-18T04:36:40;0.60;;;0.60;;
52166;SDS011;38149;52.666;6.428;2022-12-18T04:39:06;0.60;;;0.60;;
52166;SDS011;38149;52.666;6.428;2022-12-18T04:41:32;0.60;;;0.60;;
52166;SDS011;38149;52.666;6.428;2022-12-18T04:43:58;0.50;;;0.50;;
52166;SDS011;38149;52.666;6.428;2022-12-18T04:46:24;0.60;;;0.60;;
52166;SDS011;38149;52.666;6.428;2022-12-18T04:48:50;0.60;;;0.60;;
52166;SDS011;38149;52.666;6.428;2022-12-18T04:51:16;0.60;;;0.60;;
52166;SDS011;38149;52.666;6.428;2022-12-18T04:53:45;0.60;;;0.60;;
52166;SDS011;38149;52.666;6.428;2022-12-18T04:56:13;0.60;;;0.60;;
52166;SDS011;38149;52.666;6.428;2022-12-18T04:58:40;0.60;;;0.60;;
52166;SDS011;38149;52.666;6.428;2022-12-18T05:01:08;0.55;;;0.55;;
52166;SDS011;38149;52.666;6.428;2022-12-18T05:03:35;0.60;;;0.60;;
52166;SDS011;38149;52.666;6.428;2022-12-18T05:06:02;0.60;;;0.60;;
52166;SDS011;38149;52.666;6.428;2022-12-18T05:08:29;0.60;;;0.60;;
52166;SDS011;38149;52.666;6.428;2022-12-18T05:10:58;0.60;;;0.60;;
52166;SDS011;38149;52.666;6.428;2022-12-18T05:13:32;0.60;;;0.60;;
52166;SDS011;38149;52.666;6.428;2022-12-18T05:15:59;0.60;;;0.60;;
52166;SDS011;38149;52.666;6.428;2022-12-18T05:18:25;0.60;;;0.60;;
52166;SDS011;38149;52.666;6.428;2022-12-18T05:20:52;0.50;;;0.50;;
52166;SDS011;38149;52.666;6.428;2022-12-18T05:23:19;0.60;;;0.60;;
52166;SDS011;38149;52.666;6.428;2022-12-18T05:25:56;0.60;;;0.60;;
52166;SDS011;38149;52.666;6.428;2022-12-18T05:28:24;0.60;;;0.60;;
52166;SDS011;38149;52.666;6.428;2022-12-18T05:30:52;0.60;;;0.60;;
52166;SDS011;38149;52.666;6.428;2022-12-18T05:33:20;0.60;;;0.60;;
52166;SDS011;38149;52.666;6.428;2022-12-18T05:35:50;0.60;;;0.60;;
52166;SDS011;38149;52.666;6.428;2022-12-18T05:38:18;0.52;;;0.52;;
52166;SDS011;38149;52.666;6.428;2022-12-18T05:40:45;0.60;;;0.60;;
52166;SDS011;38149;52.666;6.428;2022-12-18T05:43:12;0.60;;;0.60;;
52166;SDS011;38149;52.666;6.428;2022-12-18T05:45:39;0.60;;;0.60;;
52166;SDS011;38149;52.666;6.428;2022-12-18T05:48:05;0.60;;;0.60;;
52166;SDS011;38149;52.666;6.428;2022-12-18T05:50:35;0.60;;;0.60;;
52166;SDS011;38149;52.666;6.428;2022-12-18T05:53:03;0.60;;;0.60;;
52166;SDS011;38149;52.666;6.428;2022-12-18T05:55:33;0.60;;;0.60;;
52166;SDS011;38149;52.666;6.428;2022-12-18T05:58:00;0.60;;;0.60;;
52166;SDS011;38149;52.666;6.428;2022-12-18T06:00:26;0.70;;;0.70;;
52166;SDS011;38149;52.666;6.428;2022-12-18T06:02:52;0.60;;;0.60;;
52166;SDS011;38149;52.666;6.428;2022-12-18T06:05:19;0.60;;;0.60;;
52166;SDS011;38149;52.666;6.428;2022-12-18T06:07:45;0.60;;;0.60;;
52166;SDS011;38149;52.666;6.428;2022-12-18T06:10:11;0.60;;;0.60;;
52166;SDS011;38149;52.666;6.428;2022-12-18T06:12:37;0.60;;;0.60;;
52166;SDS011;38149;52.666;6.428;2022-12-18T06:15:04;0.60;;;0.60;;
52166;SDS011;38149;52.666;6.428;2022-12-18T06:17:30;0.60;;;0.60;;
52166;SDS011;38149;52.666;6.428;2022-12-18T06:19:57;0.60;;;0.60;;
52166;SDS011;38149;52.666;6.428;2022-12-18T06:22:23;0.50;;;0.50;;
52166;SDS011;38149;52.666;6.428;2022-12-18T06:24:49;0.60;;;0.60;;
52166;SDS011;38149;52.666;6.428;2022-12-18T06:27:16;0.60;;;0.60;;
52166;SDS011;38149;52.666;6.428;2022-12-18T06:29:42;0.60;;;0.60;;
52166;SDS011;38149;52.666;6.428;2022-12-18T06:32:08;0.60;;;0.60;;
52166;SDS011;38149;52.666;6.428;2022-12-18T06:34:34;0.52;;;0.52;;
52166;SDS011;38149;52.666;6.428;2022-12-18T06:37:02;0.50;;;0.50;;
52166;SDS011;38149;52.666;6.428;2022-12-18T06:39:29;0.60;;;0.60;;
52166;SDS011;38149;52.666;6.428;2022-12-18T06:41:55;0.52;;;0.52;;
52166;SDS011;38149;52.666;6.428;2022-12-18T06:44:21;0.60;;;0.60;;
52166;SDS011;38149;52.666;6.428;2022-12-18T06:46:47;0.60;;;0.60;;
52166;SDS011;38149;52.666;6.428;2022-12-18T06:49:13;0.50;;;0.50;;
52166;SDS011;38149;52.666;6.428;2022-12-18T06:51:41;0.60;;;0.60;;
52166;SDS011;38149;52.666;6.428;2022-12-18T06:54:07;0.52;;;0.52;;
52166;SDS011;38149;52.666;6.428;2022-12-18T06:56:33;0.60;;;0.60;;
52166;SDS011;38149;52.666;6.428;2022-12-18T06:58:59;0.50;;;0.50;;
52166;SDS011;38149;52.666;6.428;2022-12-18T07:01:25;0.50;;;0.50;;
52166;SDS011;38149;52.666;6.428;2022-12-18T07:03:52;0.50;;;0.50;;
52166;SDS011;38149;52.666;6.428;2022-12-18T07:06:20;0.50;;;0.50;;
52166;SDS011;38149;52.666;6.428;2022-12-18T07:08:47;0.60;;;0.60;;
52166;SDS011;38149;52.666;6.428;2022-12-18T07:11:14;0.50;;;0.50;;
52166;SDS011;38149;52.666;6.428;2022-12-18T07:13:41;0.50;;;0.50;;
52166;SDS011;38149;52.666;6.428;2022-12-18T07:16:25;0.60;;;0.60;;
52166;SDS011;38149;52.666;6.428;2022-12-18T07:21:20;0.60;;;0.60;;
52166;SDS011;38149;52.666;6.428;2022-12-18T07:23:46;0.50;;;0.50;;
52166;SDS011;38149;52.666;6.428;2022-12-18T07:26:13;0.60;;;0.60;;
52166;SDS011;38149;52.666;6.428;2022-12-18T07:28:41;0.60;;;0.60;;
52166;SDS011;38149;52.666;6.428;2022-12-18T07:31:08;0.60;;;0.60;;
52166;SDS011;38149;52.666;6.428;2022-12-18T07:33:39;0.60;;;0.60;;
52166;SDS011;38149;52.666;6.428;2022-12-18T07:36:06;0.50;;;0.50;;
52166;SDS011;38149;52.666;6.428;2022-12-18T07:38:33;0.60;;;0.60;;
52166;SDS011;38149;52.666;6.428;2022-12-18T07:41:00;0.50;;;0.50;;
52166;SDS011;38149;52.666;6.428;2022-12-18T07:43:27;0.60;;;0.60;;
52166;SDS011;38149;52.666;6.428;2022-12-18T07:45:54;0.60;;;0.60;;
52166;SDS011;38149;52.666;6.428;2022-12-18T07:48:20;0.60;;;0.60;;
52166;SDS011;38149;52.666;6.428;2022-12-18T07:50:46;0.60;;;0.60;;
52166;SDS011;38149;52.666;6.428;2022-12-18T07:53:12;0.52;;;0.52;;
52166;SDS011;38149;52.666;6.428;2022-12-18T07:55:39;0.60;;;0.60;;
52166;SDS011;38149;52.666;6.428;2022-12-18T07:58:06;0.60;;;0.60;;
52166;SDS011;38149;52.666;6.428;2022-12-18T08:00:33;0.60;;;0.60;;
52166;SDS011;38149;52.666;6.428;2022-12-18T08:02:59;0.60;;;0.60;;
52166;SDS011;38149;52.666;6.428;2022-12-18T08:05:26;0.60;;;0.60;;
52166;SDS011;38149;52.666;6.428;2022-12-18T08:07:53;0.60;;;0.60;;
52166;SDS011;38149;52.666;6.428;2022-12-18T08:10:19;0.60;;;0.60;;
52166;SDS011;38149;52.666;6.428;2022-12-18T08:12:48;0.60;;;0.60;;
52166;SDS011;38149;52.666;6.428;2022-12-18T08:15:15;0.60;;;0.60;;
52166;SDS011;38149;52.666;6.428;2022-12-18T08:17:41;0.60;;;0.60;;
52166;SDS011;38149;52.666;6.428;2022-12-18T08:20:08;0.60;;;0.60;;
52166;SDS011;38149;52.666;6.428;2022-12-18T08:22:35;0.60;;;0.60;;
52166;SDS011;38149;52.666;6.428;2022-12-18T08:25:02;0.60;;;0.60;;
52166;SDS011;38149;52.666;6.428;2022-12-18T08:27:28;0.60;;;0.60;;
52166;SDS011;38149;52.666;6.428;2022-12-18T08:29:55;0.60;;;0.60;;
52166;SDS011;38149;52.666;6.428;2022-12-18T08:32:21;0.60;;;0.60;;
52166;SDS011;38149;52.666;6.428;2022-12-18T08:34:48;0.60;;;0.60;;
52166;SDS011;38149;52.666;6.428;2022-12-18T08:37:24;0.60;;;0.60;;
52166;SDS011;38149;52.666;6.428;2022-12-18T08:39:50;0.60;;;0.60;;
52166;SDS011;38149;52.666;6.428;2022-12-18T08:42:28;0.60;;;0.60;;
52166;SDS011;38149;52.666;6.428;2022-12-18T08:45:13;0.70;;;0.70;;
52166;SDS011;38149;52.666;6.428;2022-12-18T08:47:39;0.60;;;0.60;;
52166;SDS011;38149;52.666;6.428;2022-12-18T08:50:05;0.60;;;0.60;;
52166;SDS011;38149;52.666;6.428;2022-12-18T08:52:32;0.60;;;0.60;;
52166;SDS011;38149;52.666;6.428;2022-12-18T08:54:58;0.60;;;0.60;;
52166;SDS011;38149;52.666;6.428;2022-12-18T08:57:24;0.60;;;0.60;;
52166;SDS011;38149;52.666;6.428;2022-12-18T08:59:50;0.60;;;0.60;;
52166;SDS011;38149;52.666;6.428;2022-12-18T09:02:16;0.60;;;0.60;;
52166;SDS011;38149;52.666;6.428;2022-12-18T09:04:42;0.60;;;0.60;;
52166;SDS011;38149;52.666;6.428;2022-12-18T09:07:20;0.60;;;0.60;;
52166;SDS011;38149;52.666;6.428;2022-12-18T09:09:46;0.60;;;0.60;;
52166;SDS011;38149;52.666;6.428;2022-12-18T09:12:12;0.60;;;0.60;;
52166;SDS011;38149;52.666;6.428;2022-12-18T09:14:38;0.57;;;0.57;;
52166;SDS011;38149;52.666;6.428;2022-12-18T09:17:04;0.60;;;0.60;;
52166;SDS011;38149;52.666;6.428;2022-12-18T09:19:30;0.60;;;0.60;;
52166;SDS011;38149;52.666;6.428;2022-12-18T09:21:57;0.63;;;0.63;;
52166;SDS011;38149;52.666;6.428;2022-12-18T09:24:23;0.60;;;0.60;;
52166;SDS011;38149;52.666;6.428;2022-12-18T09:29:27;0.60;;;0.60;;
52166;SDS011;38149;52.666;6.428;2022-12-18T09:31:53;0.60;;;0.60;;
52166;SDS011;38149;52.666;6.428;2022-12-18T09:34:19;0.60;;;0.60;;
52166;SDS011;38149;52.666;6.428;2022-12-18T09:36:46;0.60;;;0.60;;
52166;SDS011;38149;52.666;6.428;2022-12-18T09:39:13;0.50;;;0.50;;
52166;SDS011;38149;52.666;6.428;2022-12-18T09:44:17;0.50;;;0.50;;
52166;SDS011;38149;52.666;6.428;2022-12-18T09:47:04;0.60;;;0.60;;
52166;SDS011;38149;52.666;6.428;2022-12-18T09:49:42;0.60;;;0.60;;
52166;SDS011;38149;52.666;6.428;2022-12-18T09:52:20;0.60;;;0.60;;
52166;SDS011;38149;52.666;6.428;2022-12-18T09:55:27;0.40;;;0.40;;
52166;SDS011;38149;52.666;6.428;2022-12-18T09:58:13;0.60;;;0.60;;
52166;SDS011;38149;52.666;6.428;2022-12-18T10:00:46;0.50;;;0.50;;
52166;SDS011;38149;52.666;6.428;2022-12-18T10:03:12;0.60;;;0.60;;
52166;SDS011;38149;52.666;6.428;2022-12-18T10:05:47;0.60;;;0.60;;
52166;SDS011;38149;52.666;6.428;2022-12-18T10:08:57;0.50;;;0.50;;
52166;SDS011;38149;52.666;6.428;2022-12-18T10:16:54;0.60;;;0.60;;
52166;SDS011;38149;52.666;6.428;2022-12-18T10:19:51;0.60;;;0.60;;
52166;SDS011;38149;52.666;6.428;2022-12-18T10:25:15;0.50;;;0.50;;
52166;SDS011;38149;52.666;6.428;2022-12-18T10:27:58;0.50;;;0.50;;
52166;SDS011;38149;52.666;6.428;2022-12-18T10:30:32;0.60;;;0.60;;
52166;SDS011;38149;52.666;6.428;2022-12-18T10:33:02;0.60;;;0.60;;
52166;SDS011;38149;52.666;6.428;2022-12-18T10:35:28;0.60;;;0.60;;
52166;SDS011;38149;52.666;6.428;2022-12-18T10:38:02;0.50;;;0.50;;
52166;SDS011;38149;52.666;6.428;2022-12-18T10:43:46;0.50;;;0.50;;
52166;SDS011;38149;52.666;6.428;2022-12-18T10:48:53;0.50;;;0.50;;
52166;SDS011;38149;52.666;6.428;2022-12-18T10:54:20;0.60;;;0.60;;
52166;SDS011;38149;52.666;6.428;2022-12-18T10:56:47;0.60;;;0.60;;
52166;SDS011;38149;52.666;6.428;2022-12-18T10:59:15;0.50;;;0.50;;
52166;SDS011;38149;52.666;6.428;2022-12-18T11:04:28;0.60;;;0.60;;
52166;SDS011;38149;52.666;6.428;2022-12-18T11:07:08;0.50;;;0.50;;
52166;SDS011;38149;52.666;6.428;2022-12-18T11:09:37;0.60;;;0.60;;
52166;SDS011;38149;52.666;6.428;2022-12-18T11:12:05;0.60;;;0.60;;
52166;SDS011;38149;52.666;6.428;2022-12-18T11:14:48;0.50;;;0.50;;
52166;SDS011;38149;52.666;6.428;2022-12-18T11:19:56;0.50;;;0.50;;
52166;SDS011;38149;52.666;6.428;2022-12-18T11:22:25;0.50;;;0.50;;
52166;SDS011;38149;52.666;6.428;2022-12-18T11:27:48;0.50;;;0.50;;
52166;SDS011;38149;52.666;6.428;2022-12-18T11:33:27;0.50;;;0.50;;
52166;SDS011;38149;52.666;6.428;2022-12-18T11:38:26;0.50;;;0.50;;
52166;SDS011;38149;52.666;6.428;2022-12-18T11:41:00;0.50;;;0.50;;
52166;SDS011;38149;52.666;6.428;2022-12-18T11:44:08;0.50;;;0.50;;
52166;SDS011;38149;52.666;6.428;2022-12-18T11:46:46;0.50;;;0.50;;
52166;SDS011;38149;52.666;6.428;2022-12-18T11:49:25;0.50;;;0.50;;
52166;SDS011;38149;52.666;6.428;2022-12-18T11:52:18;0.50;;;0.50;;
52166;SDS011;38149;52.666;6.428;2022-12-18T11:54:51;0.50;;;0.50;;
52166;SDS011;38149;52.666;6.428;2022-12-18T11:57:33;0.50;;;0.50;;
52166;SDS011;38149;52.666;6.428;2022-12-18T12:05:40;0.50;;;0.50;;
52166;SDS011;38149;52.666;6.428;2022-12-18T12:16:35;0.50;;;0.50;;
52166;SDS011;38149;52.666;6.428;2022-12-18T12:24:55;0.55;;;0.55;;
52166;SDS011;38149;52.666;6.428;2022-12-18T12:28:19;0.50;;;0.50;;
52166;SDS011;38149;52.666;6.428;2022-12-18T12:30:33;0.50;;;0.50;;
52166;SDS011;38149;52.666;6.428;2022-12-18T12:33:22;0.50;;;0.50;;
52166;SDS011;38149;52.666;6.428;2022-12-18T12:38:36;0.50;;;0.50;;
52166;SDS011;38149;52.666;6.428;2022-12-18T12:41:23;0.50;;;0.50;;
52166;SDS011;38149;52.666;6.428;2022-12-18T12:44:13;0.50;;;0.50;;
52166;SDS011;38149;52.666;6.428;2022-12-18T12:46:45;0.50;;;0.50;;
52166;SDS011;38149;52.666;6.428;2022-12-18T12:49:14;0.50;;;0.50;;
52166;SDS011;38149;52.666;6.428;2022-12-18T12:51:47;0.50;;;0.50;;
52166;SDS011;38149;52.666;6.428;2022-12-18T12:54:19;0.50;;;0.50;;
52166;SDS011;38149;52.666;6.428;2022-12-18T12:56:50;0.50;;;0.50;;
52166;SDS011;38149;52.666;6.428;2022-12-18T13:07:41;0.50;;;0.50;;
52166;SDS011;38149;52.666;6.428;2022-12-18T13:12:54;0.50;;;0.50;;
52166;SDS011;38149;52.666;6.428;2022-12-18T13:20:39;0.40;;;0.40;;
52166;SDS011;38149;52.666;6.428;2022-12-18T13:33:57;0.50;;;0.50;;
52166;SDS011;38149;52.666;6.428;2022-12-18T13:36:42;0.50;;;0.50;;
52166;SDS011;38149;52.666;6.428;2022-12-18T13:39:09;0.50;;;0.50;;
52166;SDS011;38149;52.666;6.428;2022-12-18T13:41:50;0.40;;;0.40;;
52166;SDS011;38149;52.666;6.428;2022-12-18T13:46:56;0.40;;;0.40;;
52166;SDS011;38149;52.666;6.428;2022-12-18T13:49:24;0.50;;;0.50;;
52166;SDS011;38149;52.666;6.428;2022-12-18T13:52:23;0.43;;;0.43;;
52166;SDS011;38149;52.666;6.428;2022-12-18T13:54:52;0.40;;;0.40;;
52166;SDS011;38149;52.666;6.428;2022-12-18T13:57:33;0.40;;;0.40;;
52166;SDS011;38149;52.666;6.428;2022-12-18T14:02:50;0.40;;;0.40;;
52166;SDS011;38149;52.666;6.428;2022-12-18T14:05:33;0.40;;;0.40;;
52166;SDS011;38149;52.666;6.428;2022-12-18T14:08:10;0.40;;;0.40;;
52166;SDS011;38149;52.666;6.428;2022-12-18T14:10:44;0.40;;;0.40;;
52166;SDS011;38149;52.666;6.428;2022-12-18T14:13:14;0.40;;;0.40;;
52166;SDS011;38149;52.666;6.428;2022-12-18T14:16:14;0.40;;;0.40;;
52166;SDS011;38149;52.666;6.428;2022-12-18T14:18:45;0.50;;;0.50;;
52166;SDS011;38149;52.666;6.428;2022-12-18T14:21:16;0.40;;;0.40;;
52166;SDS011;38149;52.666;6.428;2022-12-18T14:26:42;0.43;;;0.43;;
52166;SDS011;38149;52.666;6.428;2022-12-18T14:29:19;0.40;;;0.40;;
52166;SDS011;38149;52.666;6.428;2022-12-18T14:34:33;0.40;;;0.40;;
52166;SDS011;38149;52.666;6.428;2022-12-18T14:36:59;0.40;;;0.40;;
52166;SDS011;38149;52.666;6.428;2022-12-18T14:42:02;0.50;;;0.50;;
52166;SDS011;38149;52.666;6.428;2022-12-18T14:44:29;0.50;;;0.50;;
52166;SDS011;38149;52.666;6.428;2022-12-18T14:46:55;0.40;;;0.40;;
52166;SDS011;38149;52.666;6.428;2022-12-18T14:49:32;0.40;;;0.40;;
52166;SDS011;38149;52.666;6.428;2022-12-18T14:51:59;0.43;;;0.43;;
52166;SDS011;38149;52.666;6.428;2022-12-18T14:54:30;0.40;;;0.40;;
52166;SDS011;38149;52.666;6.428;2022-12-18T14:59:26;0.40;;;0.40;;
52166;SDS011;38149;52.666;6.428;2022-12-18T15:04:29;0.40;;;0.40;;
52166;SDS011;38149;52.666;6.428;2022-12-18T15:09:40;0.40;;;0.40;;
52166;SDS011;38149;52.666;6.428;2022-12-18T15:14:58;0.40;;;0.40;;
52166;SDS011;38149;52.666;6.428;2022-12-18T15:17:24;0.40;;;0.40;;
52166;SDS011;38149;52.666;6.428;2022-12-18T15:19:52;0.40;;;0.40;;
52166;SDS011;38149;52.666;6.428;2022-12-18T15:22:27;0.40;;;0.40;;
52166;SDS011;38149;52.666;6.428;2022-12-18T15:24:56;0.40;;;0.40;;
52166;SDS011;38149;52.666;6.428;2022-12-18T15:27:35;0.50;;;0.50;;
52166;SDS011;38149;52.666;6.428;2022-12-18T15:32:35;0.40;;;0.40;;
52166;SDS011;38149;52.666;6.428;2022-12-18T15:37:34;0.40;;;0.40;;
52166;SDS011;38149;52.666;6.428;2022-12-18T15:40:00;0.40;;;0.40;;
52166;SDS011;38149;52.666;6.428;2022-12-18T15:42:27;0.40;;;0.40;;
52166;SDS011;38149;52.666;6.428;2022-12-18T15:45:12;0.40;;;0.40;;
52166;SDS011;38149;52.666;6.428;2022-12-18T15:52:27;0.40;;;0.40;;
52166;SDS011;38149;52.666;6.428;2022-12-18T15:54:53;0.40;;;0.40;;
52166;SDS011;38149;52.666;6.428;2022-12-18T15:57:38;0.40;;;0.40;;
52166;SDS011;38149;52.666;6.428;2022-12-18T16:00:04;0.50;;;0.50;;
52166;SDS011;38149;52.666;6.428;2022-12-18T16:02:30;0.50;;;0.50;;
52166;SDS011;38149;52.666;6.428;2022-12-18T16:04:57;0.40;;;0.40;;
52166;SDS011;38149;52.666;6.428;2022-12-18T16:07:23;0.40;;;0.40;;
52166;SDS011;38149;52.666;6.428;2022-12-18T16:09:49;0.40;;;0.40;;
52166;SDS011;38149;52.666;6.428;2022-12-18T16:12:16;0.40;;;0.40;;
52166;SDS011;38149;52.666;6.428;2022-12-18T16:14:56;0.40;;;0.40;;
52166;SDS011;38149;52.666;6.428;2022-12-18T16:17:22;0.40;;;0.40;;
52166;SDS011;38149;52.666;6.428;2022-12-18T16:19:48;0.40;;;0.40;;
52166;SDS011;38149;52.666;6.428;2022-12-18T16:22:24;0.40;;;0.40;;
52166;SDS011;38149;52.666;6.428;2022-12-18T16:24:53;0.40;;;0.40;;
52166;SDS011;38149;52.666;6.428;2022-12-18T16:27:20;0.40;;;0.40;;
52166;SDS011;38149;52.666;6.428;2022-12-18T16:29:47;0.40;;;0.40;;
52166;SDS011;38149;52.666;6.428;2022-12-18T16:32:18;0.40;;;0.40;;
52166;SDS011;38149;52.666;6.428;2022-12-18T16:35:11;0.40;;;0.40;;
52166;SDS011;38149;52.666;6.428;2022-12-18T16:37:38;0.40;;;0.40;;
52166;SDS011;38149;52.666;6.428;2022-12-18T16:40:06;0.40;;;0.40;;
52166;SDS011;38149;52.666;6.428;2022-12-18T16:42:34;0.40;;;0.40;;
52166;SDS011;38149;52.666;6.428;2022-12-18T16:45:02;0.40;;;0.40;;
52166;SDS011;38149;52.666;6.428;2022-12-18T16:47:29;0.40;;;0.40;;
52166;SDS011;38149;52.666;6.428;2022-12-18T16:49:55;0.40;;;0.40;;
52166;SDS011;38149;52.666;6.428;2022-12-18T16:52:21;0.50;;;0.50;;
52166;SDS011;38149;52.666;6.428;2022-12-18T16:54:47;0.50;;;0.50;;
52166;SDS011;38149;52.666;6.428;2022-12-18T16:57:14;0.40;;;0.40;;
52166;SDS011;38149;52.666;6.428;2022-12-18T16:59:53;0.40;;;0.40;;
52166;SDS011;38149;52.666;6.428;2022-12-18T17:02:20;0.40;;;0.40;;
52166;SDS011;38149;52.666;6.428;2022-12-18T17:04:48;0.47;;;0.47;;
52166;SDS011;38149;52.666;6.428;2022-12-18T17:07:14;0.40;;;0.40;;
52166;SDS011;38149;52.666;6.428;2022-12-18T17:09:41;0.40;;;0.40;;
52166;SDS011;38149;52.666;6.428;2022-12-18T17:12:07;0.40;;;0.40;;
52166;SDS011;38149;52.666;6.428;2022-12-18T17:14:34;0.40;;;0.40;;
52166;SDS011;38149;52.666;6.428;2022-12-18T17:17:00;0.40;;;0.40;;
52166;SDS011;38149;52.666;6.428;2022-12-18T17:19:27;0.40;;;0.40;;
52166;SDS011;38149;52.666;6.428;2022-12-18T17:21:53;0.40;;;0.40;;
52166;SDS011;38149;52.666;6.428;2022-12-18T17:24:32;0.40;;;0.40;;
52166;SDS011;38149;52.666;6.428;2022-12-18T17:26:58;0.40;;;0.40;;
52166;SDS011;38149;52.666;6.428;2022-12-18T17:29:24;0.40;;;0.40;;